createdAt,value
2022-09-15T00:00:07.120Z,99494.22
2022-09-15T00:02:34.252Z,99494.84
2022-09-15T00:05:00.899Z,99491.50
2022-09-15T00:07:27.760Z,99493.72
2022-09-15T00:09:54.332Z,99495.44
2022-09-15T00:12:20.950Z,99482.38
2022-09-15T00:14:47.596Z,99488.69
2022-09-15T00:17:15.643Z,99485.06
2022-09-15T00:19:42.197Z,99482.97
2022-09-15T00:22:08.836Z,99495.06
2022-09-15T00:24:36.047Z,99489.22
2022-09-15T00:27:03.534Z,99494.13
2022-09-15T00:29:30.219Z,99486.44
2022-09-15T00:31:56.838Z,99485.16
2022-09-15T00:34:23.395Z,99482.97
2022-09-15T00:36:50.063Z,99484.78
2022-09-15T00:39:17.195Z,99485.50
2022-09-15T00:41:44.262Z,99486.97
2022-09-15T00:44:16.935Z,99485.44
2022-09-15T00:47:09.377Z,99479.94
2022-09-15T00:49:39.217Z,99488.91
2022-09-15T00:52:14.903Z,99485.28
2022-09-15T00:54:59.719Z,99479.94
2022-09-15T00:57:31.703Z,99481.38
2022-09-15T01:00:00.578Z,99482.81
2022-09-15T01:02:33.424Z,99489.59
2022-09-15T01:05:03.622Z,99489.88
2022-09-15T01:07:30.322Z,99487.81
2022-09-15T01:10:00.552Z,99484.28
2022-09-15T01:12:28.557Z,99478.22
2022-09-15T01:14:55.204Z,99492.19
2022-09-15T01:17:41.022Z,99480.19
2022-09-15T01:20:42.684Z,99486.59
2022-09-15T01:23:40.450Z,99501.72
2022-09-15T01:26:44.497Z,99496.63
2022-09-15T01:29:32.446Z,99502.47
2022-09-15T01:32:20.380Z,99497.59
2022-09-15T01:35:18.135Z,99485.53
2022-09-15T01:38:07.828Z,99493.00
2022-09-15T01:40:57.223Z,99491.06
2022-09-15T01:43:26.441Z,99495.69
2022-09-15T01:45:53.315Z,99494.47
2022-09-15T01:48:23.783Z,99491.31
2022-09-15T01:50:55.668Z,99489.16
2022-09-15T01:53:23.675Z,99495.69
2022-09-15T01:55:50.191Z,99496.91
2022-09-15T01:58:16.868Z,99501.38
2022-09-15T02:00:49.589Z,99498.56
2022-09-15T02:03:26.119Z,99496.66
2022-09-15T02:06:02.171Z,99497.03
2022-09-15T02:08:38.651Z,99487.19
2022-09-15T02:11:20.883Z,99491.31
2022-09-15T02:13:58.063Z,99498.34
2022-09-15T02:16:29.805Z,99499.56
2022-09-15T02:19:00.977Z,99491.06
2022-09-15T02:21:34.129Z,99489.31
2022-09-15T02:24:07.580Z,99495.66
2022-09-15T02:26:37.771Z,99491.16
2022-09-15T02:29:08.492Z,99497.34
2022-09-15T02:31:39.414Z,99492.94
2022-09-15T02:34:13.224Z,99491.44
2022-09-15T02:36:41.561Z,99493.69
2022-09-15T02:39:13.556Z,99490.13
2022-09-15T02:41:40.454Z,99502.31
2022-09-15T02:44:09.639Z,99496.34
2022-09-15T02:46:36.852Z,99496.69
2022-09-15T02:49:03.492Z,99500.09
2022-09-15T02:51:31.136Z,99498.53
2022-09-15T02:53:57.808Z,99499.31
2022-09-15T02:56:24.441Z,99494.19
2022-09-15T02:58:51.273Z,99491.75
2022-09-15T03:01:18.354Z,99491.56
2022-09-15T03:03:45.804Z,99497.53
2022-09-15T03:06:16.634Z,99487.94
2022-09-15T03:08:48.496Z,99488.34
2022-09-15T03:11:15.549Z,99490.50
2022-09-15T03:13:42.209Z,99494.94
2022-09-15T03:16:10.943Z,99494.38
2022-09-15T03:18:38.473Z,99496.69
2022-09-15T03:21:06.010Z,99488.34
2022-09-15T03:23:32.948Z,99498.09
2022-09-15T03:25:59.627Z,99488.03
2022-09-15T03:28:26.955Z,99490.75
2022-09-15T03:30:54.616Z,99489.69
2022-09-15T03:33:22.142Z,99496.72
2022-09-15T03:35:49.763Z,99491.16
2022-09-15T03:38:17.334Z,99485.59
2022-09-15T03:40:44.961Z,99489.44
2022-09-15T03:43:16.650Z,99479.88
2022-09-15T03:45:45.258Z,99483.03
2022-09-15T03:48:11.928Z,99478.84
2022-09-15T03:50:38.578Z,99481.50
2022-09-15T03:53:05.190Z,99478.47
2022-09-15T03:55:31.789Z,99478.84
2022-09-15T03:57:58.399Z,99480.84
2022-09-15T04:00:25.082Z,99480.72
2022-09-15T04:02:51.808Z,99488.25
2022-09-15T04:05:18.483Z,99483.22
2022-09-15T04:07:45.040Z,99476.72
2022-09-15T04:10:11.715Z,99477.88
2022-09-15T04:12:38.631Z,99485.75
2022-09-15T04:15:05.818Z,99488.69
2022-09-15T04:17:32.462Z,99484.81
2022-09-15T04:19:59.183Z,99486.53
2022-09-15T04:22:25.825Z,99485.19
2022-09-15T04:24:52.678Z,99486.28
2022-09-15T04:27:19.424Z,99488.44
2022-09-15T04:29:46.235Z,99491.91
2022-09-15T04:32:12.837Z,99497.47
2022-09-15T04:34:41.517Z,99499.13
2022-09-15T04:37:08.236Z,99500.25
2022-09-15T04:39:34.839Z,99497.47
2022-09-15T04:42:05.155Z,99498.56
2022-09-15T04:44:32.503Z,99501.03
2022-09-15T04:46:59.193Z,99502.06
2022-09-15T04:49:25.940Z,99496.09
2022-09-15T04:51:55.549Z,99507.56
2022-09-15T04:54:22.148Z,99505.19
2022-09-15T04:56:49.389Z,99506.34
2022-09-15T04:59:17.365Z,99509.03
2022-09-15T05:01:44.051Z,99508.50
2022-09-15T05:04:11.258Z,99503.69
2022-09-15T05:06:38.202Z,99509.50
2022-09-15T05:09:10.340Z,99507.75
2022-09-15T05:11:37.935Z,99512.66
2022-09-15T05:14:04.664Z,99502.28
2022-09-15T05:16:32.038Z,99509.97
2022-09-15T05:19:01.292Z,99509.66
2022-09-15T05:21:29.008Z,99510.19
2022-09-15T05:23:56.415Z,99507.72
2022-09-15T05:26:26.177Z,99512.03
2022-09-15T05:28:52.887Z,99520.94
2022-09-15T05:31:22.713Z,99518.44
2022-09-15T05:33:50.583Z,99521.81
2022-09-15T05:36:18.578Z,99511.50
2022-09-15T05:38:47.338Z,99514.44
2022-09-15T05:41:17.015Z,99514.91
2022-09-15T05:43:45.147Z,99516.91
2022-09-15T05:46:12.668Z,99518.03
2022-09-15T05:48:39.458Z,99514.81
2022-09-15T05:51:06.871Z,99516.16
2022-09-15T05:53:34.683Z,99514.81
2022-09-15T05:56:05.219Z,99512.56
2022-09-15T05:58:32.086Z,99511.84
2022-09-15T06:01:08.004Z,99509.09
2022-09-15T06:03:35.695Z,99512.34
2022-09-15T06:06:05.085Z,99504.72
2022-09-15T06:08:37.278Z,99508.03
2022-09-15T06:11:12.985Z,99520.06
2022-09-15T06:13:40.306Z,99516.03
2022-09-15T06:16:12.925Z,99506.63
2022-09-15T06:18:40.982Z,99521.72
2022-09-15T06:21:18.397Z,99513.25
2022-09-15T06:23:50.550Z,99509.28
2022-09-15T06:26:18.984Z,99517.47
2022-09-15T06:28:54.600Z,99507.91
2022-09-15T06:31:22.234Z,99509.72
2022-09-15T06:33:51.847Z,99514.81
2022-09-15T06:36:20.825Z,99520.03
2022-09-15T06:38:48.350Z,99523.66
2022-09-15T06:41:16.010Z,99528.88
2022-09-15T06:43:43.512Z,99530.56
2022-09-15T06:46:11.466Z,99520.09
2022-09-15T06:48:39.551Z,99533.47
2022-09-15T06:51:08.746Z,99531.41
2022-09-15T06:53:38.189Z,99535.06
2022-09-15T06:56:14.548Z,99541.22
2022-09-15T06:58:42.770Z,99538.31
2022-09-15T07:01:12.267Z,99541.09
2022-09-15T07:03:41.849Z,99546.31
2022-09-15T07:06:10.067Z,99537.69
2022-09-15T07:08:36.699Z,99551.91
2022-09-15T07:11:04.175Z,99549.69
2022-09-15T07:13:30.740Z,99557.16
2022-09-15T07:16:00.245Z,99553.59
2022-09-15T07:18:27.492Z,99555.03
2022-09-15T07:20:59.538Z,99557.22
2022-09-15T07:23:26.368Z,99552.59
2022-09-15T07:25:53.067Z,99556.25
2022-09-15T07:28:19.850Z,99556.44
2022-09-15T07:30:50.837Z,99549.91
2022-09-15T07:33:17.515Z,99552.09
2022-09-15T07:35:44.883Z,99560.00
2022-09-15T07:38:11.389Z,99556.81
2022-09-15T07:40:38.664Z,99568.34
2022-09-15T07:43:06.555Z,99561.03
2022-09-15T07:45:36.144Z,99552.56
2022-09-15T07:48:03.103Z,99559.84
2022-09-15T07:50:29.859Z,99561.31
2022-09-15T07:52:57.130Z,99562.19
2022-09-15T07:55:24.543Z,99566.31
2022-09-15T07:58:03.743Z,99567.00
2022-09-15T08:00:30.479Z,99570.25
2022-09-15T08:02:57.150Z,99572.53
2022-09-15T08:05:28.392Z,99579.34
2022-09-15T08:07:56.187Z,99578.50
2022-09-15T08:10:25.148Z,99583.03
2022-09-15T08:12:52.636Z,99585.22
2022-09-15T08:15:19.183Z,99579.63
2022-09-15T08:17:46.577Z,99579.34
2022-09-15T08:20:13.435Z,99578.69
2022-09-15T08:22:41.274Z,99571.75
2022-09-15T08:25:08.303Z,99583.06
2022-09-15T08:27:35.099Z,99590.84
2022-09-15T08:30:01.916Z,99587.91
2022-09-15T08:32:28.529Z,99578.69
2022-09-15T08:34:55.141Z,99585.63
2022-09-15T08:37:22.019Z,99587.03
2022-09-15T08:39:48.762Z,99598.16
2022-09-15T08:42:20.575Z,99589.19
2022-09-15T08:44:55.643Z,99591.94
2022-09-15T08:47:36.206Z,99590.94
2022-09-15T08:50:11.197Z,99593.25
2022-09-15T08:52:53.598Z,99591.94
2022-09-15T08:55:25.944Z,99599.88
2022-09-15T08:57:53.659Z,99602.41
2022-09-15T09:00:20.357Z,99602.59
2022-09-15T09:02:58.987Z,99604.78
2022-09-15T09:05:31.875Z,99599.88
2022-09-15T09:08:16.724Z,99604.81
2022-09-15T09:10:54.787Z,99603.50
2022-09-15T09:13:24.361Z,99605.63
2022-09-15T09:16:19.291Z,99598.00
2022-09-15T09:18:47.141Z,99600.28
2022-09-15T09:22:13.933Z,99594.53
2022-09-15T09:24:44.965Z,99599.13
2022-09-15T09:27:14.356Z,99596.78
2022-09-15T09:29:59.378Z,99592.78
2022-09-15T09:32:35.199Z,99586.63
2022-09-15T09:35:31.524Z,99597.84
2022-09-15T09:38:00.105Z,99596.34
2022-09-15T09:40:28.247Z,99598.56
2022-09-15T09:42:54.947Z,99586.09
2022-09-15T09:45:22.773Z,99588.91
2022-09-15T09:47:50.078Z,99585.88
2022-09-15T09:50:39.070Z,99587.00
2022-09-15T09:53:26.404Z,99588.88
2022-09-15T09:56:14.718Z,99590.13
2022-09-15T09:58:41.590Z,99586.63
2022-09-15T10:01:14.818Z,99579.78
2022-09-15T10:03:43.290Z,99579.22
2022-09-15T10:06:20.812Z,99580.63
2022-09-15T10:09:04.790Z,99584.25
2022-09-15T10:11:47.193Z,99588.31
2022-09-15T10:14:35.899Z,99572.69
2022-09-15T10:17:18.948Z,99587.63
2022-09-15T10:19:50.868Z,99580.25
2022-09-15T10:22:22.332Z,99581.66
2022-09-15T10:24:50.180Z,99572.69
2022-09-15T10:27:27.351Z,99567.38
2022-09-15T10:29:54.886Z,99567.66
2022-09-15T10:32:30.317Z,99563.38
2022-09-15T10:35:05.612Z,99557.75
2022-09-15T10:37:53.479Z,99555.16
2022-09-15T10:40:36.338Z,99551.09
2022-09-15T10:43:32.338Z,99536.88
2022-09-15T10:46:09.918Z,99543.00
2022-09-15T10:48:58.575Z,99546.84
2022-09-15T10:51:33.444Z,99556.66
2022-09-15T10:54:06.593Z,99549.88
2022-09-15T10:56:49.521Z,99558.88
2022-09-15T10:59:36.889Z,99558.94
2022-09-15T11:02:19.644Z,99557.47
2022-09-15T11:04:55.295Z,99558.88
2022-09-15T11:07:41.799Z,99568.41
2022-09-15T11:10:25.794Z,99562.78
2022-09-15T11:13:24.091Z,99559.22
2022-09-15T11:16:03.615Z,99564.59
2022-09-15T11:18:58.251Z,99571.84
2022-09-15T11:21:35.151Z,99569.47
2022-09-15T11:24:20.071Z,99569.91
2022-09-15T11:26:56.758Z,99571.97
2022-09-15T11:29:30.847Z,99574.63
2022-09-15T11:32:04.745Z,99570.22
2022-09-15T11:34:41.232Z,99568.69
2022-09-15T11:37:40.446Z,99577.56
2022-09-15T11:40:16.853Z,99570.22
2022-09-15T11:43:01.924Z,99584.06
2022-09-15T11:45:35.076Z,99576.78
2022-09-15T11:48:16.855Z,99581.16
2022-09-15T11:50:46.970Z,99588.94
2022-09-15T11:53:17.975Z,99585.41
2022-09-15T11:56:00.529Z,99587.75
2022-09-15T11:58:48.079Z,99588.66
2022-09-15T12:01:20.395Z,99592.66
2022-09-15T12:03:53.692Z,99595.59
2022-09-15T12:06:48.443Z,99590.16
2022-09-15T12:09:19.893Z,99593.84
2022-09-15T12:11:48.783Z,99592.19
2022-09-15T12:14:21.591Z,99584.41
2022-09-15T12:16:48.390Z,99588.78
2022-09-15T12:20:04.522Z,99592.75
2022-09-15T12:22:45.577Z,99579.81
2022-09-15T12:25:22.364Z,99593.78
2022-09-15T12:28:23.184Z,99592.91
2022-09-15T12:31:12.699Z,99593.50
2022-09-15T12:33:53.553Z,99598.31
2022-09-15T12:36:48.825Z,99584.94
2022-09-15T12:39:39.656Z,99587.16
2022-09-15T12:42:20.506Z,99585.88
2022-09-15T12:44:57.134Z,99586.00
2022-09-15T12:47:32.323Z,99588.75
2022-09-15T12:50:22.111Z,99588.19
2022-09-15T12:52:54.746Z,99591.31
2022-09-15T12:55:35.187Z,99596.13
2022-09-15T12:58:10.763Z,99596.06
2022-09-15T13:00:54.839Z,99594.94
2022-09-15T13:06:24.077Z,99585.69
2022-09-15T13:08:51.975Z,99577.03
2022-09-15T13:11:28.452Z,99584.16
2022-09-15T13:14:11.318Z,99579.59
2022-09-15T13:16:40.624Z,99580.53
2022-09-15T13:19:13.877Z,99581.97
2022-09-15T13:21:46.050Z,99581.75
2022-09-15T13:24:19.351Z,99572.88
2022-09-15T13:26:52.790Z,99582.13
2022-09-15T13:29:20.198Z,99573.41
2022-09-15T13:32:03.888Z,99570.44
2022-09-15T13:38:14.041Z,99568.97
2022-09-15T13:40:40.579Z,99557.03
2022-09-15T13:43:13.197Z,99555.38
2022-09-15T13:46:08.555Z,99562.56
2022-09-15T13:48:46.978Z,99558.91
2022-09-15T13:51:23.770Z,99555.56
2022-09-15T13:53:56.222Z,99555.84
2022-09-15T13:56:28.241Z,99554.75
2022-09-15T13:59:08.925Z,99553.66
2022-09-15T14:01:39.739Z,99550.75
2022-09-15T14:04:10.709Z,99559.41
2022-09-15T14:06:40.593Z,99553.63
2022-09-15T14:09:25.811Z,99556.78
2022-09-15T14:11:56.931Z,99564.53
2022-09-15T14:14:38.675Z,99555.63
2022-09-15T14:17:05.659Z,99544.44
2022-09-15T14:19:39.350Z,99556.63
2022-09-15T14:22:26.272Z,99556.34
2022-09-15T14:24:54.123Z,99548.84
2022-09-15T14:27:29.964Z,99560.03
2022-09-15T14:29:58.655Z,99561.44
2022-09-15T14:32:27.920Z,99548.75
2022-09-15T14:34:58.897Z,99563.13
2022-09-15T14:37:31.617Z,99560.88
2022-09-15T14:40:00.692Z,99568.19
2022-09-15T14:42:35.358Z,99569.88
2022-09-15T14:48:03.398Z,99585.69
2022-09-15T14:50:33.209Z,99601.38
2022-09-15T14:53:23.524Z,99613.56
2022-09-15T14:55:52.359Z,99619.97
2022-09-15T14:58:24.712Z,99618.50
2022-09-15T15:00:54.902Z,99623.56
2022-09-15T15:03:21.529Z,99621.44
2022-09-15T15:06:02.599Z,99615.72
2022-09-15T15:08:42.968Z,99616.91
2022-09-15T15:11:12.977Z,99611.06
2022-09-15T15:13:42.688Z,99604.16
2022-09-15T15:16:27.525Z,99586.88
2022-09-15T15:18:56.956Z,99595.59
2022-09-15T15:21:38.569Z,99591.53
2022-09-15T15:24:18.707Z,99599.75
2022-09-15T15:26:50.360Z,99601.09
2022-09-15T15:29:44.187Z,99594.91
2022-09-15T15:32:16.553Z,99587.72
2022-09-15T15:34:55.805Z,99583.38
2022-09-15T15:37:31.508Z,99591.06
2022-09-15T15:40:01.842Z,99587.78
2022-09-15T15:42:29.462Z,99590.88
2022-09-15T15:45:09.365Z,99594.31
2022-09-15T15:47:37.049Z,99593.38
2022-09-15T15:50:32.455Z,99594.06
2022-09-15T15:53:00.910Z,99588.25
2022-09-15T15:55:41.620Z,99593.81
2022-09-15T15:58:10.595Z,99596.66
2022-09-15T16:00:48.716Z,99596.66
2022-09-15T16:03:17.139Z,99593.56
2022-09-15T16:05:47.070Z,99592.31
2022-09-15T16:08:19.825Z,99591.16
2022-09-15T16:10:48.488Z,99596.91
2022-09-15T16:13:17.492Z,99587.97
2022-09-15T16:15:45.051Z,99599.50
2022-09-15T16:18:12.873Z,99593.44
2022-09-15T16:20:40.087Z,99590.84
2022-09-15T16:23:07.456Z,99598.00
2022-09-15T16:25:45.240Z,99598.84
2022-09-15T16:28:11.870Z,99600.59
2022-09-15T16:30:38.513Z,99605.81
2022-09-15T16:33:05.484Z,99601.69
2022-09-15T16:35:43.274Z,99609.53
2022-09-15T16:38:10.139Z,99609.53
2022-09-15T16:40:39.580Z,99611.16
2022-09-15T16:43:12.385Z,99618.94
2022-09-15T16:45:40.884Z,99620.13
2022-09-15T16:48:09.211Z,99629.06
2022-09-15T16:50:37.781Z,99626.78
2022-09-15T16:53:08.853Z,99629.31
2022-09-15T16:55:41.205Z,99633.75
2022-09-15T16:58:07.859Z,99620.38
2022-09-15T17:00:36.801Z,99633.03
2022-09-15T17:03:05.435Z,99625.53
2022-09-15T17:05:43.075Z,99617.72
2022-09-15T17:08:12.732Z,99621.50
2022-09-15T17:10:39.822Z,99618.94
2022-09-15T17:13:07.184Z,99618.03
2022-09-15T17:15:36.947Z,99627.22
2022-09-15T17:18:04.603Z,99621.09
2022-09-15T17:20:34.729Z,99617.53
2022-09-15T17:23:27.762Z,99619.63
2022-09-15T17:25:58.453Z,99624.84
2022-09-15T17:28:28.926Z,99629.06
2022-09-15T17:31:00.756Z,99628.56
2022-09-15T17:33:28.879Z,99627.75
2022-09-15T17:35:55.913Z,99637.22
2022-09-15T17:38:23.146Z,99639.84
2022-09-15T17:40:51.309Z,99639.72
2022-09-15T17:43:20.987Z,99640.09
2022-09-15T17:45:48.831Z,99645.41
2022-09-15T17:48:15.996Z,99647.97
2022-09-15T17:50:43.527Z,99644.34
2022-09-15T17:53:12.743Z,99637.69
2022-09-15T17:55:39.882Z,99641.06
2022-09-15T17:58:07.008Z,99642.53
2022-09-15T18:00:39.702Z,99638.41
2022-09-15T18:03:28.922Z,99639.09
2022-09-15T18:05:58.310Z,99646.41
2022-09-15T18:08:25.844Z,99634.50
2022-09-15T18:10:52.470Z,99645.31
2022-09-15T18:13:23.569Z,99647.13
2022-09-15T18:15:50.808Z,99638.41
2022-09-15T18:18:23.940Z,99653.44
2022-09-15T18:20:53.075Z,99646.88
2022-09-15T18:23:25.294Z,99645.66
2022-09-15T18:25:52.208Z,99646.16
2022-09-15T18:28:19.616Z,99648.59
2022-09-15T18:30:48.103Z,99653.66
2022-09-15T18:33:20.859Z,99658.66
2022-09-15T18:35:56.136Z,99657.22
2022-09-15T18:38:23.381Z,99661.59
2022-09-15T18:40:53.458Z,99665.56
2022-09-15T18:43:21.228Z,99666.50
2022-09-15T18:45:48.382Z,99663.91
2022-09-15T18:48:18.435Z,99666.41
2022-09-15T18:50:45.504Z,99658.00
2022-09-15T18:53:12.527Z,99663.47
2022-09-15T18:55:41.612Z,99662.88
2022-09-15T18:58:08.538Z,99661.69
2022-09-15T19:00:35.488Z,99662.16
2022-09-15T19:03:05.239Z,99668.00
2022-09-15T19:05:32.683Z,99668.38
2022-09-15T19:07:59.389Z,99669.09
2022-09-15T19:10:27.014Z,99680.63
2022-09-15T19:12:54.053Z,99676.72
2022-09-15T19:15:23.685Z,99679.94
2022-09-15T19:17:50.699Z,99674.47
2022-09-15T19:20:17.556Z,99684.56
2022-09-15T19:22:44.178Z,99692.88
2022-09-15T19:25:11.362Z,99688.50
2022-09-15T19:27:38.817Z,99698.59
2022-09-15T19:30:07.005Z,99683.97
2022-09-15T19:32:33.984Z,99682.16
2022-09-15T19:35:00.694Z,99670.09
2022-09-15T19:37:27.563Z,99679.69
2022-09-15T19:39:54.799Z,99675.13
2022-09-15T19:42:21.600Z,99687.69
2022-09-15T19:44:49.449Z,99677.56
2022-09-15T19:47:16.256Z,99689.09
2022-09-15T19:49:42.989Z,99690.22
2022-09-15T19:52:09.623Z,99687.94
2022-09-15T19:54:36.204Z,99687.94
2022-09-15T19:57:03.370Z,99683.97
2022-09-15T19:59:31.694Z,99689.59
2022-09-15T20:01:59.367Z,99692.06
2022-09-15T20:04:26.047Z,99695.94
2022-09-15T20:06:52.716Z,99696.56
2022-09-15T20:09:19.297Z,99698.22
2022-09-15T20:11:46.194Z,99691.81
2022-09-15T20:14:12.919Z,99686.81
2022-09-15T20:16:39.842Z,99696.09
2022-09-15T20:19:07.661Z,99693.88
2022-09-15T20:21:52.746Z,99703.81
2022-09-15T20:24:20.932Z,99696.41
2022-09-15T20:26:48.164Z,99702.00
2022-09-15T20:29:15.473Z,99702.97
2022-09-15T20:31:42.649Z,99708.22
2022-09-15T20:34:09.307Z,99705.16
2022-09-15T20:36:38.442Z,99704.03
2022-09-15T20:39:10.376Z,99703.69
2022-09-15T20:41:37.521Z,99701.09
2022-09-15T20:44:06.000Z,99701.22
2022-09-15T20:46:33.585Z,99702.44
2022-09-15T20:49:00.150Z,99705.09
2022-09-15T20:51:30.537Z,99702.72
2022-09-15T20:53:59.439Z,99699.16
2022-09-15T20:56:28.069Z,99709.00
2022-09-15T20:58:59.591Z,99706.19
2022-09-15T21:01:34.173Z,99705.13
2022-09-15T21:04:01.163Z,99708.34
2022-09-15T21:06:28.374Z,99707.94
2022-09-15T21:08:56.846Z,99707.59
2022-09-15T21:11:25.366Z,99702.34
2022-09-15T21:13:52.496Z,99712.53
2022-09-15T21:16:21.933Z,99710.03
2022-09-15T21:18:49.606Z,99711.28
2022-09-15T21:21:20.538Z,99714.06
2022-09-15T21:23:53.204Z,99716.59
2022-09-15T21:26:25.309Z,99721.88
2022-09-15T21:28:53.151Z,99716.34
2022-09-15T21:31:28.152Z,99720.50
2022-09-15T21:33:56.094Z,99714.56
2022-09-15T21:36:29.579Z,99713.56
2022-09-15T21:38:58.267Z,99725.81
2022-09-15T21:41:28.133Z,99723.44
2022-09-15T21:43:55.350Z,99724.69
2022-09-15T21:46:24.198Z,99725.75
2022-09-15T21:48:51.756Z,99736.59
2022-09-15T21:51:23.523Z,99736.06
2022-09-15T21:53:53.191Z,99740.97
2022-09-15T21:56:20.340Z,99735.63
2022-09-15T21:58:47.193Z,99731.91
2022-09-15T22:01:15.129Z,99747.03
2022-09-15T22:03:42.985Z,99743.16
2022-09-15T22:06:11.558Z,99745.72
2022-09-15T22:08:40.175Z,99755.91
2022-09-15T22:11:08.185Z,99747.44
2022-09-15T22:13:43.671Z,99743.84
2022-09-15T22:16:16.608Z,99740.63
2022-09-15T22:18:44.599Z,99748.28
2022-09-15T22:21:12.771Z,99749.34
2022-09-15T22:23:40.046Z,99745.50
2022-09-15T22:26:15.246Z,99741.91
2022-09-15T22:28:42.509Z,99747.22
2022-09-15T22:31:11.595Z,99745.81
2022-09-15T22:33:41.017Z,99737.88
2022-09-15T22:36:17.020Z,99742.72
2022-09-15T22:38:44.824Z,99735.75
2022-09-15T22:41:14.112Z,99735.28
2022-09-15T22:43:42.979Z,99740.97
2022-09-15T22:46:10.548Z,99734.22
2022-09-15T22:48:42.443Z,99731.50
2022-09-15T22:51:10.382Z,99731.03
2022-09-15T22:53:36.951Z,99724.00
2022-09-15T22:56:10.491Z,99735.25
2022-09-15T22:58:37.516Z,99739.41
2022-09-15T23:01:09.820Z,99738.31
2022-09-15T23:03:37.786Z,99728.72
2022-09-15T23:06:05.639Z,99726.59
2022-09-15T23:08:33.151Z,99732.34
2022-09-15T23:11:14.051Z,99730.63
2022-09-15T23:13:41.789Z,99736.34
2022-09-15T23:16:08.929Z,99732.50
2022-09-15T23:18:36.002Z,99739.91
2022-09-15T23:21:07.894Z,99733.41
2022-09-15T23:23:36.504Z,99727.44
2022-09-15T23:26:04.695Z,99728.47
2022-09-15T23:28:32.642Z,99732.69
2022-09-15T23:30:59.804Z,99737.84
2022-09-15T23:33:28.373Z,99734.38
2022-09-15T23:35:55.421Z,99734.88
2022-09-15T23:38:22.650Z,99739.16
2022-09-15T23:40:50.537Z,99738.59
2022-09-15T23:43:17.806Z,99726.50
2022-09-15T23:45:45.697Z,99729.41
2022-09-15T23:48:13.416Z,99733.50
2022-09-15T23:50:40.994Z,99740.13
2022-09-15T23:53:08.464Z,99740.22
2022-09-15T23:55:35.901Z,99734.00
2022-09-15T23:58:02.735Z,99736.16
